createdAt,value
2023-01-19T00:01:38.151Z,7.10
2023-01-19T00:03:46.949Z,7.20
2023-01-19T00:05:56.054Z,8.63
2023-01-19T00:08:14.977Z,5.50
2023-01-19T00:10:23.976Z,9.07
2023-01-19T00:12:32.734Z,7.10
2023-01-19T00:14:41.331Z,8.47
2023-01-19T00:16:51.453Z,8.23
2023-01-19T00:19:00.572Z,8.03
2023-01-19T00:21:09.606Z,9.10
2023-01-19T00:23:18.701Z,7.67
2023-01-19T00:25:27.895Z,5.23
2023-01-19T00:27:36.701Z,11.70
2023-01-19T00:29:45.609Z,9.60
2023-01-19T00:31:56.256Z,6.30
2023-01-19T00:34:05.670Z,9.33
2023-01-19T00:36:14.500Z,8.13
2023-01-19T00:38:23.314Z,4.93
2023-01-19T00:40:32.504Z,5.93
2023-01-19T00:42:44.759Z,10.03
2023-01-19T00:44:53.937Z,4.00
2023-01-19T00:47:06.234Z,7.10
2023-01-19T00:49:15.062Z,7.17
2023-01-19T00:51:23.897Z,7.20
2023-01-19T00:53:32.730Z,8.33
2023-01-19T00:55:41.780Z,4.07
2023-01-19T00:57:50.977Z,7.73
2023-01-19T01:00:00.007Z,8.37
2023-01-19T01:02:11.850Z,5.70
2023-01-19T01:04:20.815Z,6.10
2023-01-19T01:06:30.283Z,7.70
2023-01-19T01:08:39.329Z,10.40
2023-01-19T01:10:48.192Z,6.60
2023-01-19T01:12:59.287Z,8.67
2023-01-19T01:15:09.616Z,6.00
2023-01-19T01:17:25.002Z,8.80
2023-01-19T01:19:34.667Z,8.53
2023-01-19T01:21:43.957Z,9.30
2023-01-19T01:23:52.893Z,4.90
2023-01-19T01:26:02.676Z,9.40
2023-01-19T01:28:12.577Z,7.33
2023-01-19T01:30:22.152Z,8.13
2023-01-19T01:32:32.369Z,8.77
2023-01-19T01:34:41.324Z,8.17
2023-01-19T01:36:50.387Z,6.57
2023-01-19T01:38:59.762Z,8.43
2023-01-19T01:41:08.758Z,7.20
2023-01-19T01:43:18.995Z,8.03
2023-01-19T01:45:32.182Z,7.60
2023-01-19T01:47:45.067Z,6.17
2023-01-19T01:49:55.454Z,10.93
2023-01-19T01:52:04.731Z,8.60
2023-01-19T01:54:18.891Z,9.23
2023-01-19T01:56:31.744Z,7.67
2023-01-19T01:58:41.436Z,8.40
2023-01-19T02:01:08.521Z,6.03
2023-01-19T02:03:19.077Z,8.17
2023-01-19T02:05:29.220Z,7.33
2023-01-19T02:07:58.283Z,5.57
2023-01-19T02:10:25.009Z,4.17
2023-01-19T02:12:52.128Z,4.93
2023-01-19T02:15:01.045Z,3.87
2023-01-19T02:17:09.882Z,6.17
2023-01-19T02:19:24.369Z,3.97
2023-01-19T02:21:35.927Z,5.33
2023-01-19T02:23:47.609Z,4.97
2023-01-19T02:25:56.487Z,4.70
2023-01-19T02:28:05.584Z,7.30
2023-01-19T02:30:16.919Z,3.00
2023-01-19T02:32:25.901Z,5.50
2023-01-19T02:34:35.041Z,7.77
2023-01-19T02:36:45.387Z,5.80
2023-01-19T02:38:58.003Z,3.13
2023-01-19T02:41:08.419Z,4.33
2023-01-19T02:43:18.711Z,5.73
2023-01-19T02:45:28.767Z,4.73
2023-01-19T02:47:41.269Z,5.50
2023-01-19T02:49:56.871Z,5.90
2023-01-19T02:52:06.327Z,3.50
2023-01-19T02:54:30.107Z,6.83
2023-01-19T02:56:56.871Z,5.30
2023-01-19T02:59:08.751Z,4.33
2023-01-19T03:01:20.856Z,5.60
2023-01-19T03:03:32.976Z,4.37
2023-01-19T03:05:51.187Z,5.37
2023-01-19T03:08:01.417Z,5.43
2023-01-19T03:10:17.807Z,4.63
2023-01-19T03:12:29.671Z,2.47
2023-01-19T03:14:39.308Z,4.63
2023-01-19T03:16:49.169Z,4.23
2023-01-19T03:18:59.326Z,3.40
2023-01-19T03:21:09.560Z,2.80
2023-01-19T03:23:19.717Z,3.17
2023-01-19T03:25:31.761Z,2.77
2023-01-19T03:27:42.183Z,4.40
2023-01-19T03:29:57.174Z,9.20
2023-01-19T03:32:09.414Z,5.57
2023-01-19T03:34:18.837Z,4.60
2023-01-19T03:36:30.315Z,2.40
2023-01-19T03:38:40.527Z,2.83
2023-01-19T03:40:51.382Z,3.10
2023-01-19T03:43:02.055Z,5.27
2023-01-19T03:45:11.172Z,4.50
2023-01-19T03:47:22.048Z,4.27
2023-01-19T03:49:32.597Z,2.87
2023-01-19T03:51:42.090Z,4.17
2023-01-19T03:53:51.180Z,6.30
2023-01-19T03:56:02.122Z,3.23
2023-01-19T03:58:11.439Z,5.47
2023-01-19T04:00:21.518Z,3.17
2023-01-19T04:02:30.720Z,4.40
2023-01-19T04:04:40.656Z,7.13
2023-01-19T04:06:50.375Z,5.63
2023-01-19T04:08:59.780Z,3.60
2023-01-19T04:11:10.585Z,3.33
2023-01-19T04:13:19.904Z,4.97
2023-01-19T04:15:29.202Z,3.50
2023-01-19T04:17:38.662Z,4.97
2023-01-19T04:19:47.613Z,4.00
2023-01-19T04:21:57.309Z,2.30
2023-01-19T04:24:06.186Z,4.30
2023-01-19T04:26:17.368Z,4.43
2023-01-19T04:28:26.098Z,5.83
2023-01-19T04:30:34.696Z,5.93
2023-01-19T04:32:44.490Z,7.00
2023-01-19T04:34:53.410Z,3.80
2023-01-19T04:37:02.301Z,6.30
2023-01-19T04:39:11.910Z,7.13
2023-01-19T04:41:22.412Z,1.87
2023-01-19T04:43:31.385Z,2.30
2023-01-19T04:45:40.046Z,4.47
2023-01-19T04:47:48.975Z,7.00
2023-01-19T04:49:58.129Z,5.83
2023-01-19T04:52:07.808Z,4.90
2023-01-19T04:54:16.735Z,5.43
2023-01-19T04:56:27.420Z,3.90
2023-01-19T04:58:36.559Z,6.33
2023-01-19T05:00:45.850Z,7.10
2023-01-19T05:02:55.116Z,2.93
2023-01-19T05:05:04.199Z,3.70
2023-01-19T05:07:13.499Z,2.87
2023-01-19T05:09:22.480Z,5.90
2023-01-19T05:11:33.223Z,5.80
2023-01-19T05:13:42.314Z,3.80
2023-01-19T05:15:51.306Z,4.40
2023-01-19T05:18:00.119Z,4.13
2023-01-19T05:20:09.894Z,4.97
2023-01-19T05:22:18.749Z,9.73
2023-01-19T05:24:28.105Z,3.10
2023-01-19T05:26:39.031Z,4.40
2023-01-19T05:28:47.703Z,7.07
2023-01-19T05:30:56.644Z,5.70
2023-01-19T05:33:05.749Z,5.23
2023-01-19T05:35:20.075Z,7.20
2023-01-19T05:37:32.919Z,6.10
2023-01-19T05:39:41.887Z,3.33
2023-01-19T05:41:52.319Z,7.23
2023-01-19T05:44:01.455Z,4.67
2023-01-19T05:46:10.529Z,3.63
2023-01-19T05:48:20.510Z,7.20
2023-01-19T05:50:29.525Z,5.00
2023-01-19T05:52:38.207Z,6.63
2023-01-19T05:54:48.428Z,6.73
2023-01-19T05:56:58.709Z,3.03
2023-01-19T05:59:08.709Z,4.33
2023-01-19T06:01:18.504Z,3.77
2023-01-19T06:03:27.266Z,5.00
2023-01-19T06:05:38.672Z,5.90
2023-01-19T06:07:47.697Z,6.07
2023-01-19T06:09:56.225Z,3.23
2023-01-19T06:12:06.695Z,4.23
2023-01-19T06:14:15.690Z,4.37
2023-01-19T06:16:24.500Z,5.57
2023-01-19T06:18:33.348Z,6.37
2023-01-19T06:20:42.724Z,8.17
2023-01-19T06:22:51.595Z,9.23
2023-01-19T06:25:00.277Z,6.53
2023-01-19T06:27:11.494Z,6.47
2023-01-19T06:29:20.384Z,5.40
2023-01-19T06:31:29.180Z,8.07
2023-01-19T06:33:38.666Z,5.80
2023-01-19T06:35:48.633Z,6.73
2023-01-19T06:37:57.987Z,6.80
2023-01-19T06:40:07.863Z,5.40
2023-01-19T06:42:18.611Z,11.90
2023-01-19T06:44:27.483Z,6.97
2023-01-19T06:46:36.810Z,7.30
2023-01-19T06:48:45.978Z,9.23
2023-01-19T06:50:57.819Z,8.33
2023-01-19T06:53:07.681Z,6.27
2023-01-19T06:55:16.796Z,12.73
2023-01-19T06:57:27.535Z,14.77
2023-01-19T06:59:36.420Z,8.70
2023-01-19T07:01:45.309Z,8.30
2023-01-19T07:03:54.622Z,6.47
2023-01-19T07:06:04.359Z,9.70
2023-01-19T07:08:13.104Z,9.10
2023-01-19T07:10:21.976Z,11.18
2023-01-19T07:12:32.933Z,7.18
2023-01-19T07:14:42.201Z,3.57
2023-01-19T07:16:51.226Z,7.50
2023-01-19T07:19:00.358Z,5.30
2023-01-19T07:21:09.783Z,7.87
2023-01-19T07:23:18.827Z,6.70
2023-01-19T07:25:28.519Z,4.67
2023-01-19T07:27:40.801Z,3.50
2023-01-19T07:29:49.814Z,5.40
2023-01-19T07:31:58.742Z,8.37
2023-01-19T07:34:08.208Z,10.93
2023-01-19T07:36:17.343Z,7.60
2023-01-19T07:38:26.043Z,4.17
2023-01-19T07:40:34.986Z,6.73
2023-01-19T07:42:50.904Z,5.07
2023-01-19T07:44:59.855Z,4.77
2023-01-19T07:47:11.922Z,7.10
2023-01-19T07:49:20.811Z,6.80
2023-01-19T07:51:29.981Z,4.80
2023-01-19T07:53:39.873Z,4.67
2023-01-19T07:55:48.706Z,2.77
2023-01-19T07:57:58.823Z,4.23
2023-01-19T08:00:09.080Z,9.53
2023-01-19T08:02:18.506Z,7.13
2023-01-19T08:04:27.461Z,5.33
2023-01-19T08:06:37.143Z,5.33
2023-01-19T08:08:46.153Z,6.00
2023-01-19T08:10:54.844Z,5.50
2023-01-19T08:13:05.422Z,6.03
2023-01-19T08:15:14.745Z,4.87
2023-01-19T08:17:23.331Z,5.63
2023-01-19T08:19:32.752Z,6.23
2023-01-19T08:21:41.465Z,6.10
2023-01-19T08:23:54.600Z,10.37
2023-01-19T08:26:03.483Z,5.90
2023-01-19T08:28:14.643Z,8.97
2023-01-19T08:30:26.920Z,7.33
2023-01-19T08:32:36.413Z,8.20
2023-01-19T08:34:45.389Z,7.23
2023-01-19T08:36:54.175Z,6.53
2023-01-19T08:39:02.743Z,11.23
2023-01-19T08:41:11.785Z,8.00
2023-01-19T08:43:21.936Z,8.07
2023-01-19T08:45:31.096Z,7.20
2023-01-19T08:47:40.197Z,7.27
2023-01-19T08:49:49.055Z,7.60
2023-01-19T08:51:58.009Z,9.03
2023-01-19T08:54:07.179Z,6.57
2023-01-19T08:56:16.307Z,7.73
2023-01-19T08:58:26.866Z,10.70
2023-01-19T09:00:38.387Z,10.37
2023-01-19T09:02:47.370Z,11.47
2023-01-19T09:04:56.221Z,10.33
2023-01-19T09:09:14.380Z,9.90
2023-01-19T09:11:23.635Z,8.37
2023-01-19T09:13:33.616Z,11.53
2023-01-19T09:15:43.464Z,8.40
2023-01-19T09:17:54.086Z,9.27
2023-01-19T09:20:03.392Z,9.47
2023-01-19T09:22:12.283Z,7.70
2023-01-19T09:24:21.153Z,6.20
2023-01-19T09:26:32.840Z,13.03
2023-01-19T09:28:43.780Z,7.53
2023-01-19T09:30:53.042Z,9.17
2023-01-19T09:33:06.736Z,8.80
2023-01-19T09:35:16.069Z,9.13
2023-01-19T09:37:24.639Z,6.50
2023-01-19T09:39:33.442Z,8.93
2023-01-19T09:41:48.590Z,7.27
2023-01-19T09:43:59.943Z,4.70
2023-01-19T09:46:13.601Z,8.17
2023-01-19T09:48:30.374Z,5.73
2023-01-19T09:50:46.695Z,6.83
2023-01-19T09:52:58.529Z,5.90
2023-01-19T09:55:11.165Z,7.90
2023-01-19T09:57:20.106Z,9.87
2023-01-19T09:59:31.176Z,9.73
2023-01-19T10:01:43.351Z,6.47
2023-01-19T10:03:54.199Z,7.07
2023-01-19T10:06:05.013Z,5.80
2023-01-19T10:08:17.820Z,7.60
2023-01-19T10:10:28.532Z,6.80
2023-01-19T10:12:52.321Z,5.40
2023-01-19T10:15:05.353Z,5.50
2023-01-19T10:17:21.859Z,4.63
2023-01-19T10:19:33.740Z,6.83
2023-01-19T10:21:44.517Z,7.03
2023-01-19T10:23:55.041Z,4.80
2023-01-19T10:26:08.519Z,5.40
2023-01-19T10:28:19.586Z,4.87
2023-01-19T10:30:30.845Z,8.80
2023-01-19T10:32:41.449Z,6.90
2023-01-19T10:34:50.634Z,4.67
2023-01-19T10:37:01.815Z,7.00
2023-01-19T10:39:13.860Z,10.60
2023-01-19T10:41:24.381Z,4.53
2023-01-19T10:43:41.953Z,7.50
2023-01-19T10:45:53.058Z,7.97
2023-01-19T10:48:03.630Z,5.90
2023-01-19T10:50:25.295Z,5.10
2023-01-19T10:52:35.731Z,6.50
2023-01-19T10:54:45.030Z,8.90
2023-01-19T10:56:55.673Z,5.27
2023-01-19T10:59:05.804Z,5.23
2023-01-19T11:01:17.873Z,5.17
2023-01-19T11:03:27.582Z,7.60
2023-01-19T11:05:36.288Z,6.97
2023-01-19T11:07:45.784Z,5.73
2023-01-19T11:10:11.702Z,4.33
2023-01-19T11:12:22.513Z,10.27
2023-01-19T11:14:32.977Z,7.57
2023-01-19T11:16:43.281Z,9.07
2023-01-19T11:18:54.596Z,6.67
2023-01-19T11:21:06.874Z,6.10
2023-01-19T11:23:21.784Z,7.20
2023-01-19T11:25:33.484Z,7.93
2023-01-19T11:27:51.272Z,6.37
2023-01-19T11:30:05.397Z,7.37
2023-01-19T11:32:22.621Z,5.63
2023-01-19T11:34:33.967Z,10.90
2023-01-19T11:36:43.190Z,8.10
2023-01-19T11:38:54.452Z,9.77
2023-01-19T11:41:06.897Z,4.73
2023-01-19T11:43:16.178Z,8.87
2023-01-19T11:45:25.634Z,6.73
2023-01-19T11:47:38.190Z,9.00
2023-01-19T11:49:49.155Z,8.73
2023-01-19T11:52:00.381Z,6.03
2023-01-19T11:54:16.182Z,8.20
2023-01-19T11:56:26.689Z,7.50
2023-01-19T11:58:39.663Z,5.77
2023-01-19T12:00:50.693Z,9.20
2023-01-19T12:03:05.228Z,6.73
2023-01-19T12:05:15.536Z,8.17
2023-01-19T12:07:27.642Z,8.23
2023-01-19T12:09:38.228Z,8.47
2023-01-19T12:11:48.574Z,8.50
2023-01-19T12:13:57.651Z,6.20
2023-01-19T12:16:08.484Z,6.73
2023-01-19T12:18:21.851Z,7.30
2023-01-19T12:20:33.053Z,11.37
2023-01-19T12:22:45.034Z,5.90
2023-01-19T12:24:57.427Z,9.30
2023-01-19T12:27:10.370Z,6.03
2023-01-19T12:29:22.032Z,8.10
2023-01-19T12:31:31.134Z,8.23
2023-01-19T12:33:42.577Z,5.43
2023-01-19T12:35:58.510Z,11.83
2023-01-19T12:38:25.542Z,7.07
2023-01-19T12:40:35.427Z,7.37
2023-01-19T12:42:46.777Z,7.73
2023-01-19T12:45:06.869Z,8.30
2023-01-19T12:47:24.567Z,7.83
2023-01-19T12:49:37.063Z,8.60
2023-01-19T12:51:46.221Z,9.83
2023-01-19T12:53:55.861Z,9.67
2023-01-19T12:56:06.549Z,7.20
2023-01-19T12:58:17.870Z,6.97
2023-01-19T13:00:37.341Z,7.67
2023-01-19T13:02:47.335Z,6.80
2023-01-19T13:05:17.846Z,7.13
2023-01-19T13:07:26.937Z,8.53
2023-01-19T13:09:37.256Z,7.30
2023-01-19T13:12:01.195Z,6.37
2023-01-19T13:14:28.843Z,6.40
2023-01-19T13:17:02.351Z,5.90
2023-01-19T13:19:17.534Z,6.27
2023-01-19T13:21:31.645Z,13.07
2023-01-19T13:23:54.350Z,7.37
2023-01-19T13:26:07.893Z,4.93
2023-01-19T13:28:18.416Z,7.00
2023-01-19T13:30:28.872Z,5.93
2023-01-19T13:32:38.151Z,8.47
2023-01-19T13:34:47.929Z,4.70
2023-01-19T13:36:59.859Z,6.87
2023-01-19T13:39:09.890Z,7.77
2023-01-19T13:41:21.147Z,6.03
2023-01-19T13:43:33.243Z,4.87
2023-01-19T13:45:41.987Z,5.27
2023-01-19T13:47:51.274Z,5.17
2023-01-19T13:50:00.591Z,8.80
2023-01-19T13:52:14.382Z,6.03
2023-01-19T13:54:26.119Z,4.93
2023-01-19T13:56:34.756Z,9.53
2023-01-19T13:58:43.685Z,6.13
2023-01-19T14:00:52.768Z,4.47
2023-01-19T14:03:02.658Z,5.90
2023-01-19T14:05:17.382Z,8.57
2023-01-19T14:07:28.185Z,6.77
2023-01-19T14:09:36.900Z,5.13
2023-01-19T14:11:46.019Z,5.30
2023-01-19T14:13:54.750Z,4.03
2023-01-19T14:16:06.927Z,6.50
2023-01-19T14:18:25.740Z,5.00
2023-01-19T14:20:37.118Z,5.27
2023-01-19T14:22:49.103Z,5.70
2023-01-19T14:24:57.975Z,6.47
2023-01-19T14:27:14.747Z,8.10
2023-01-19T14:29:27.974Z,7.50
2023-01-19T14:31:44.446Z,5.30
2023-01-19T14:33:54.385Z,7.20
2023-01-19T14:36:10.925Z,6.33
2023-01-19T14:38:21.260Z,6.23
2023-01-19T14:40:30.448Z,6.37
2023-01-19T14:42:40.457Z,4.60
2023-01-19T14:44:51.315Z,5.17
2023-01-19T14:47:00.971Z,4.10
2023-01-19T14:49:10.323Z,5.37
2023-01-19T14:51:20.895Z,5.83
2023-01-19T14:53:32.590Z,7.40
2023-01-19T14:55:46.124Z,7.00
2023-01-19T14:57:56.375Z,6.30
2023-01-19T15:00:08.908Z,5.73
2023-01-19T15:02:19.093Z,6.83
2023-01-19T15:04:28.297Z,6.20
2023-01-19T15:06:41.079Z,5.30
2023-01-19T15:08:53.422Z,6.17
2023-01-19T15:11:04.700Z,9.47
2023-01-19T15:13:18.548Z,5.23
2023-01-19T15:15:29.586Z,7.27
2023-01-19T15:17:38.845Z,8.63
2023-01-19T15:19:47.766Z,7.13
2023-01-19T15:21:56.701Z,12.43
2023-01-19T15:24:07.128Z,10.67
2023-01-19T15:26:17.762Z,12.70
2023-01-19T15:28:27.118Z,16.83
2023-01-19T15:30:37.104Z,10.63
2023-01-19T15:32:46.871Z,10.63
2023-01-19T15:34:56.058Z,17.43
2023-01-19T15:37:05.105Z,33.17
2023-01-19T15:39:15.332Z,20.53
2023-01-19T15:41:26.122Z,17.60
2023-01-19T15:43:34.841Z,20.57
2023-01-19T15:45:44.506Z,19.37
2023-01-19T15:47:53.427Z,17.63
2023-01-19T15:50:02.193Z,17.33
2023-01-19T15:52:10.886Z,13.77
2023-01-19T15:54:22.013Z,17.80
2023-01-19T15:56:32.225Z,23.10
2023-01-19T15:58:40.863Z,23.87
2023-01-19T16:00:55.949Z,11.50
2023-01-19T16:03:05.653Z,25.57
2023-01-19T16:05:14.531Z,26.50
2023-01-19T16:07:23.508Z,21.10
2023-01-19T16:09:33.709Z,17.70
2023-01-19T16:11:42.769Z,12.20
2023-01-19T16:13:51.398Z,8.60
2023-01-19T16:16:03.231Z,9.60
2023-01-19T16:18:12.124Z,7.40
2023-01-19T16:20:22.576Z,8.17
2023-01-19T16:22:31.584Z,9.60
2023-01-19T16:24:42.329Z,6.67
2023-01-19T16:26:51.244Z,7.27
2023-01-19T16:29:01.002Z,8.00
2023-01-19T16:31:10.455Z,7.50
2023-01-19T16:33:19.704Z,8.80
2023-01-19T16:35:28.559Z,8.10
2023-01-19T16:37:37.583Z,9.00
2023-01-19T16:39:48.424Z,10.97
2023-01-19T16:41:57.412Z,12.27
2023-01-19T16:44:07.007Z,11.60
2023-01-19T16:46:20.563Z,11.87
2023-01-19T16:48:30.028Z,12.63
2023-01-19T16:50:38.869Z,10.03
2023-01-19T16:52:50.703Z,10.73
2023-01-19T16:55:01.268Z,9.07
2023-01-19T16:57:10.151Z,10.10
2023-01-19T16:59:19.156Z,13.40
2023-01-19T17:01:29.067Z,13.73
2023-01-19T17:03:38.593Z,15.57
2023-01-19T17:05:51.159Z,17.73
2023-01-19T17:08:00.111Z,15.93
2023-01-19T17:10:13.480Z,16.87
2023-01-19T17:12:22.963Z,12.67
2023-01-19T17:14:31.783Z,13.70
2023-01-19T17:16:40.551Z,13.80
2023-01-19T17:18:50.190Z,22.70
2023-01-19T17:21:02.678Z,16.63
2023-01-19T17:23:12.105Z,22.00
2023-01-19T17:25:22.258Z,26.07
2023-01-19T17:27:31.304Z,17.50
2023-01-19T17:29:40.556Z,19.50
2023-01-19T17:31:51.893Z,21.27
2023-01-19T17:34:01.960Z,44.73
2023-01-19T17:36:12.685Z,31.27
2023-01-19T17:38:21.463Z,23.87
2023-01-19T17:40:32.358Z,30.27
2023-01-19T17:42:42.325Z,31.03
2023-01-19T17:44:50.863Z,25.77
2023-01-19T17:47:01.080Z,27.67
2023-01-19T17:49:10.499Z,27.27
2023-01-19T17:51:19.294Z,21.97
2023-01-19T17:53:29.129Z,27.87
2023-01-19T17:55:39.661Z,27.70
2023-01-19T17:57:49.111Z,26.70
2023-01-19T17:59:58.110Z,24.80
2023-01-19T18:02:07.289Z,29.93
2023-01-19T18:04:16.411Z,31.70
2023-01-19T18:06:25.352Z,32.30
2023-01-19T18:08:35.216Z,37.13
2023-01-19T18:10:45.946Z,50.30
2023-01-19T18:12:55.006Z,46.67
2023-01-19T18:15:03.535Z,37.23
2023-01-19T18:17:12.325Z,36.27
2023-01-19T18:19:22.687Z,37.07
2023-01-19T18:21:31.499Z,25.87
2023-01-19T18:23:41.111Z,22.37
2023-01-19T18:25:51.539Z,23.97
2023-01-19T18:28:00.148Z,22.10
2023-01-19T18:30:09.852Z,24.20
2023-01-19T18:32:18.750Z,22.07
2023-01-19T18:34:27.957Z,25.30
2023-01-19T18:36:37.372Z,24.13
2023-01-19T18:38:47.471Z,35.83
2023-01-19T18:41:03.915Z,34.27
2023-01-19T18:43:14.330Z,42.87
2023-01-19T18:45:23.020Z,46.60
2023-01-19T18:47:32.036Z,44.50
2023-01-19T18:49:40.752Z,41.60
2023-01-19T18:51:49.978Z,39.33
2023-01-19T18:53:59.011Z,42.77
2023-01-19T18:56:10.771Z,36.03
2023-01-19T18:58:20.705Z,41.77
2023-01-19T19:00:44.707Z,40.43
2023-01-19T19:02:55.732Z,42.53
2023-01-19T19:05:04.531Z,36.90
2023-01-19T19:07:13.590Z,33.33
2023-01-19T19:09:22.916Z,38.10
2023-01-19T19:11:33.487Z,35.50
2023-01-19T19:13:43.829Z,45.13
2023-01-19T19:15:52.923Z,39.03
2023-01-19T19:18:02.780Z,48.93
2023-01-19T19:20:12.934Z,34.60
2023-01-19T19:22:22.863Z,49.57
2023-01-19T19:24:33.213Z,44.40
2023-01-19T19:26:43.392Z,34.00
2023-01-19T19:28:52.234Z,38.70
2023-01-19T19:31:08.253Z,47.90
2023-01-19T19:33:17.128Z,48.13
2023-01-19T19:35:26.200Z,44.63
2023-01-19T19:37:34.805Z,43.53
2023-01-19T19:39:43.902Z,44.67
2023-01-19T19:41:53.960Z,37.00
2023-01-19T19:44:02.625Z,37.10
2023-01-19T19:46:12.562Z,35.30
2023-01-19T19:48:21.170Z,34.80
2023-01-19T19:50:30.416Z,28.53
2023-01-19T19:52:43.641Z,36.87
2023-01-19T19:54:52.745Z,34.10
2023-01-19T19:57:03.575Z,34.83
2023-01-19T19:59:12.687Z,34.80
2023-01-19T20:01:24.703Z,36.47
2023-01-19T20:03:37.040Z,32.97
2023-01-19T20:05:46.294Z,26.60
2023-01-19T20:07:55.187Z,26.83
2023-01-19T20:10:04.347Z,27.60
2023-01-19T20:12:15.037Z,33.43
2023-01-19T20:14:24.015Z,45.10
2023-01-19T20:16:33.225Z,34.10
2023-01-19T20:18:43.549Z,48.80
2023-01-19T20:20:52.394Z,40.53
2023-01-19T20:23:01.387Z,31.23
2023-01-19T20:25:11.027Z,30.27
2023-01-19T20:27:21.323Z,30.30
2023-01-19T20:29:30.918Z,35.83
2023-01-19T20:31:41.159Z,34.73
2023-01-19T20:33:51.180Z,33.33
2023-01-19T20:36:00.425Z,36.27
2023-01-19T20:38:09.360Z,34.40
2023-01-19T20:40:18.658Z,35.33
2023-01-19T20:42:29.123Z,27.50
2023-01-19T20:44:37.825Z,30.13
2023-01-19T20:46:46.444Z,32.43
2023-01-19T20:48:55.499Z,27.73
2023-01-19T20:51:05.708Z,31.33
2023-01-19T20:53:14.826Z,31.70
2023-01-19T20:55:23.519Z,28.53
2023-01-19T20:57:33.948Z,27.47
2023-01-19T20:59:42.709Z,27.33
2023-01-19T21:01:51.934Z,32.10
2023-01-19T21:04:01.290Z,30.93
2023-01-19T21:06:10.760Z,34.00
2023-01-19T21:08:20.204Z,30.60
2023-01-19T21:10:29.185Z,32.07
2023-01-19T21:12:39.564Z,35.33
2023-01-19T21:14:48.463Z,36.67
2023-01-19T21:16:58.708Z,37.63
2023-01-19T21:19:08.090Z,44.87
2023-01-19T21:21:29.277Z,40.97
2023-01-19T21:23:38.419Z,46.30
2023-01-19T21:25:51.296Z,35.60
2023-01-19T21:28:01.931Z,37.10
2023-01-19T21:30:11.537Z,38.07
2023-01-19T21:32:20.672Z,34.23
2023-01-19T21:34:29.600Z,35.83
2023-01-19T21:36:38.725Z,39.40
2023-01-19T21:38:47.397Z,32.90
2023-01-19T21:40:56.896Z,40.40
2023-01-19T21:43:07.568Z,40.63
2023-01-19T21:45:16.832Z,40.60
2023-01-19T21:47:25.873Z,37.80
2023-01-19T21:49:34.828Z,38.43
2023-01-19T21:51:43.514Z,42.83
2023-01-19T21:53:56.041Z,36.13
2023-01-19T21:56:04.983Z,38.80
2023-01-19T21:58:15.046Z,33.30
2023-01-19T22:00:23.975Z,40.23
2023-01-19T22:02:38.531Z,33.43
2023-01-19T22:04:47.738Z,40.33
2023-01-19T22:06:56.717Z,38.57
2023-01-19T22:09:05.545Z,33.23
2023-01-19T22:11:15.381Z,31.33
2023-01-19T22:13:25.898Z,27.30
2023-01-19T22:15:34.968Z,23.60
2023-01-19T22:17:43.482Z,24.03
2023-01-19T22:19:52.351Z,25.67
2023-01-19T22:22:01.017Z,26.23
2023-01-19T22:24:10.392Z,31.43
2023-01-19T22:26:19.403Z,30.60
2023-01-19T22:28:30.063Z,30.90
2023-01-19T22:30:39.106Z,30.50
2023-01-19T22:32:48.494Z,34.17
2023-01-19T22:34:58.272Z,28.33
2023-01-19T22:37:07.730Z,32.20
2023-01-19T22:39:16.581Z,29.33
2023-01-19T22:41:25.902Z,28.60
2023-01-19T22:43:36.586Z,28.67
2023-01-19T22:45:45.505Z,25.10
2023-01-19T22:47:54.372Z,27.53
2023-01-19T22:50:03.442Z,21.50
2023-01-19T22:52:12.469Z,23.80
2023-01-19T22:54:23.120Z,20.27
2023-01-19T22:56:33.080Z,25.20
2023-01-19T22:58:44.336Z,23.50
2023-01-19T23:00:53.787Z,22.57
2023-01-19T23:03:02.360Z,18.83
2023-01-19T23:05:11.399Z,28.23
2023-01-19T23:07:20.428Z,22.53
2023-01-19T23:09:29.557Z,23.07
2023-01-19T23:11:42.439Z,21.83
2023-01-19T23:13:53.886Z,25.90
2023-01-19T23:16:03.133Z,23.73
2023-01-19T23:18:11.763Z,23.47
2023-01-19T23:20:21.326Z,24.03
2023-01-19T23:22:30.550Z,26.57
2023-01-19T23:24:39.456Z,25.53
2023-01-19T23:26:48.356Z,26.67
2023-01-19T23:29:00.133Z,27.67
2023-01-19T23:31:15.880Z,27.30
2023-01-19T23:33:24.965Z,23.03
2023-01-19T23:35:33.851Z,20.93
2023-01-19T23:37:42.944Z,27.60
2023-01-19T23:39:52.011Z,23.03
2023-01-19T23:42:00.941Z,23.67
2023-01-19T23:44:12.109Z,25.53
2023-01-19T23:46:21.762Z,21.00
2023-01-19T23:48:30.690Z,25.10
2023-01-19T23:50:42.049Z,22.83
2023-01-19T23:52:51.777Z,21.13
2023-01-19T23:55:00.700Z,24.27
2023-01-19T23:57:09.827Z,22.47
2023-01-19T23:59:20.324Z,18.80
